Time;durP1;ratioP1;P1;durP2;ratioP2;P2;SDS_P1;SDS_P2;PMS_P1;PMS_P2;Temp;Humidity;BMP_temperature;BMP_pressure;BME280_temperature;BME280_humidity;BME280_pressure;Samples;Min_cycle;Max_cycle;Signal;HPM_P1;HPM_P2
2022/09/14 00:00:40;;;;;;;4.65;3.22;;;;;;;26.90;50.32;98605.28;2058845;28;20096;-53
2022/09/14 00:01:44;;;;;;;4.85;4.28;;;;;;;26.90;50.41;98608.00;2058417;28;20410;-54
2022/09/14 00:02:45;;;;;;;6.05;3.28;;;;;;;26.91;50.56;98606.09;2061900;28;20078;-52
2022/09/14 00:03:47;;;;;;;5.43;3.20;;;;;;;26.89;50.40;98611.81;2062745;28;20050;-54
2022/09/14 00:04:50;;;;;;;5.65;3.38;;;;;;;26.90;50.66;98610.72;2063339;28;20046;-55
2022/09/14 00:05:52;;;;;;;4.18;3.30;;;;;;;26.90;50.38;98610.72;2060575;28;20049;-52
2022/09/14 00:06:53;;;;;;;4.78;3.00;;;;;;;26.90;50.30;98609.91;2060033;28;20050;-52
2022/09/14 00:07:54;;;;;;;5.00;2.83;;;;;;;26.90;50.55;98613.44;2060579;28;20042;-55
2022/09/14 00:08:59;;;;;;;6.05;3.25;;;;;;;26.91;50.58;98608.81;2058793;28;20054;-48
2022/09/14 00:10:00;;;;;;;4.75;2.90;;;;;;;26.90;50.13;98597.09;2058024;28;20054;-51
2022/09/14 00:11:05;;;;;;;5.53;3.53;;;;;;;26.92;50.17;98608.56;2061717;28;20042;-51
2022/09/14 00:12:06;;;;;;;3.80;3.22;;;;;;;26.86;50.27;98601.44;2061885;28;20061;-53
2022/09/14 00:13:08;;;;;;;3.28;2.67;;;;;;;26.87;50.67;98605.78;2061370;28;20039;-58
2022/09/14 00:14:10;;;;;;;3.70;2.90;;;;;;;26.89;50.51;98597.38;2061161;28;20061;-53
2022/09/14 00:15:11;;;;;;;3.50;2.80;;;;;;;26.88;50.81;98601.97;2061351;28;20539;-51
2022/09/14 00:16:15;;;;;;;3.08;2.78;;;;;;;26.89;50.72;98603.63;2060639;28;20101;-51
2022/09/14 00:17:17;;;;;;;4.25;3.35;;;;;;;26.89;50.60;98608.25;2056505;28;20107;-51
2022/09/14 00:18:19;;;;;;;3.42;2.75;;;;;;;26.89;50.42;98602.81;2056752;28;20093;-56
2022/09/14 00:19:22;;;;;;;3.97;3.10;;;;;;;26.89;50.27;98600.09;2059028;28;20174;-49
2022/09/14 00:20:24;;;;;;;4.15;3.17;;;;;;;26.89;50.62;98595.47;2058184;28;20746;-56
2022/09/14 00:21:26;;;;;;;3.33;3.00;;;;;;;26.89;50.78;98608.25;2060009;28;20083;-49
2022/09/14 00:22:27;;;;;;;3.72;3.20;;;;;;;26.90;50.57;98602.53;2060528;28;20125;-55
2022/09/14 00:23:29;;;;;;;3.67;3.22;;;;;;;26.89;50.52;98589.22;2057693;28;20058;-58
2022/09/14 00:24:30;;;;;;;3.40;3.10;;;;;;;26.88;50.64;98601.97;2062092;28;20070;-55
2022/09/14 00:25:31;;;;;;;4.00;3.33;;;;;;;26.87;50.66;98589.47;2061287;28;20713;-55
2022/09/14 00:26:33;;;;;;;3.97;2.63;;;;;;;26.88;50.67;98582.94;2060857;28;20113;-52
2022/09/14 00:27:34;;;;;;;3.35;3.05;;;;;;;26.90;50.36;98579.97;2061426;28;20395;-54
2022/09/14 00:28:40;;;;;;;6.13;2.83;;;;;;;26.90;50.37;98582.69;2063225;28;20117;-53
2022/09/14 00:29:41;;;;;;;4.70;3.17;;;;;;;26.89;50.56;98581.88;2062303;28;20061;-56
2022/09/14 00:30:42;;;;;;;4.40;2.78;;;;;;;26.89;50.80;98576.44;2058948;28;20607;-58
2022/09/14 00:31:44;;;;;;;4.00;3.60;;;;;;;26.87;50.63;98572.31;2063548;28;20500;-54
2022/09/14 00:32:47;;;;;;;3.17;2.45;;;;;;;26.90;50.74;98579.97;2064743;28;20046;-55
2022/09/14 00:33:49;;;;;;;4.38;2.78;;;;;;;26.89;50.79;98581.88;2064653;28;20103;-52
2022/09/14 00:34:50;;;;;;;4.43;3.10;;;;;;;26.88;50.72;98574.75;2062118;28;20065;-50
2022/09/14 00:35:51;;;;;;;3.17;2.40;;;;;;;26.86;50.84;98576.94;2061287;28;20072;-50
2022/09/14 00:36:53;;;;;;;3.42;2.47;;;;;;;26.88;50.44;98582.94;2064352;28;20121;-51
2022/09/14 00:37:53;;;;;;;2.90;2.40;;;;;;;26.87;50.75;98588.66;2057481;28;20054;-50
2022/09/14 00:38:56;;;;;;;3.22;2.70;;;;;;;26.87;50.58;98581.28;2058142;28;20046;-51
2022/09/14 00:39:57;;;;;;;3.38;2.60;;;;;;;26.88;50.38;98577.47;2061901;28;20525;-51
2022/09/14 00:41:00;;;;;;;3.67;3.20;;;;;;;26.88;50.37;98579.38;2062022;28;20049;-52
2022/09/14 00:42:01;;;;;;;4.25;3.17;;;;;;;26.87;50.76;98578.56;2061280;28;20050;-52
2022/09/14 00:43:03;;;;;;;3.08;2.58;;;;;;;26.85;50.93;98580.72;2059128;28;20197;-56
2022/09/14 00:44:06;;;;;;;4.70;2.55;;;;;;;26.88;50.95;98585.66;2058952;28;20133;-49
2022/09/14 00:45:15;;;;;;;3.15;2.30;;;;;;;26.86;50.87;98581.56;2060965;28;20065;-50
2022/09/14 00:46:16;;;;;;;4.13;2.75;;;;;;;26.86;51.00;98578.84;2060392;28;20054;-53
2022/09/14 00:47:18;;;;;;;2.83;2.42;;;;;;;26.86;50.90;98582.38;2062386;28;20060;-52
2022/09/14 00:48:23;;;;;;;3.38;3.05;;;;;;;26.87;50.53;98578.56;2059560;28;20127;-53
2022/09/14 00:49:31;;;;;;;2.50;2.30;;;;;;;26.86;50.78;98582.38;2063651;28;20628;-54
2022/09/14 00:50:31;;;;;;;3.47;2.50;;;;;;;26.85;51.04;98582.63;2061938;28;20092;-53
2022/09/14 00:51:35;;;;;;;2.72;2.53;;;;;;;26.84;50.62;98587.25;2062173;28;21012;-54
2022/09/14 00:52:38;;;;;;;3.17;2.70;;;;;;;26.87;50.49;98588.66;2059211;28;20971;-54
2022/09/14 00:53:40;;;;;;;3.80;3.03;;;;;;;26.85;51.07;98588.88;2063712;28;20049;-53
2022/09/14 00:54:44;;;;;;;2.88;2.67;;;;;;;26.85;50.95;98590.78;2064342;28;20056;-56
2022/09/14 00:55:46;;;;;;;3.97;3.05;;;;;;;26.86;50.95;98585.09;2059344;28;20050;-53
2022/09/14 00:56:48;;;;;;;5.13;2.80;;;;;;;26.86;50.73;98579.66;2060289;28;20648;-50
2022/09/14 00:57:53;;;;;;;2.60;2.38;;;;;;;26.83;51.11;98582.91;2065474;28;20161;-53
2022/09/14 00:58:56;;;;;;;4.78;3.25;;;;;;;26.84;50.53;98576.38;2063003;28;20042;-52
2022/09/14 00:59:58;;;;;;;2.88;2.58;;;;;;;26.83;50.84;98582.91;2060011;28;20050;-51
2022/09/14 01:01:00;;;;;;;3.40;3.10;;;;;;;26.83;50.62;98577.47;2059037;28;20455;-48
2022/09/14 01:02:02;;;;;;;2.78;2.42;;;;;;;26.85;50.60;98586.16;2062554;28;20050;-51
2022/09/14 01:03:03;;;;;;;2.92;2.47;;;;;;;26.84;50.55;98595.44;2062591;28;20049;-49
2022/09/14 01:04:06;;;;;;;3.70;3.30;;;;;;;26.82;50.80;98594.84;2061845;28;20525;-50
2022/09/14 01:05:08;;;;;;;3.78;2.67;;;;;;;26.82;50.60;98591.31;2059835;28;20104;-50
2022/09/14 01:06:17;;;;;;;3.75;2.88;;;;;;;26.81;50.93;98590.50;2060304;28;20441;-50
2022/09/14 01:07:31;;;;;;;3.33;2.38;;;;;;;26.81;50.94;98581.53;2059360;28;20062;-49
2022/09/14 01:08:51;;;;;;;3.50;2.45;;;;;;;26.76;51.06;98576.84;2062513;28;20050;-50
2022/09/14 01:10:00;;;;;;;3.13;2.22;;;;;;;26.74;50.67;98579.84;2060794;28;20050;-50
2022/09/14 01:11:21;;;;;;;6.22;3.05;;;;;;;26.75;51.18;98572.50;2061119;28;20455;-52
2022/09/14 01:12:28;;;;;;;3.70;2.95;;;;;;;26.76;50.90;98565.97;2060439;28;20735;-53
2022/09/14 01:13:36;;;;;;;3.13;2.70;;;;;;;26.77;50.81;98562.16;2060332;28;20061;-49
2022/09/14 01:14:45;;;;;;;3.22;2.92;;;;;;;26.77;50.68;98564.06;2060964;28;20104;-52
2022/09/14 01:15:56;;;;;;;4.15;2.90;;;;;;;26.78;51.02;98566.53;2061401;28;20042;-51
2022/09/14 01:17:05;;;;;;;2.95;2.50;;;;;;;26.75;50.90;98561.63;2062019;28;20051;-49
2022/09/14 01:18:14;;;;;;;5.22;3.22;;;;;;;26.76;51.27;98578.75;2049399;28;20065;-50
2022/09/14 01:19:28;;;;;;;3.75;2.60;;;;;;;26.74;51.28;98562.69;2058887;28;20581;-50
2022/09/14 01:20:35;;;;;;;3.58;2.47;;;;;;;26.77;51.36;98573.03;2061398;28;20495;-52
2022/09/14 01:21:41;;;;;;;3.05;2.70;;;;;;;26.78;50.74;98571.16;2062298;28;20109;-50
2022/09/14 01:22:49;;;;;;;3.20;2.60;;;;;;;26.79;51.27;98565.44;2061091;28;20144;-52
2022/09/14 01:23:56;;;;;;;2.85;2.22;;;;;;;26.78;50.83;98563.81;2058804;28;20046;-50
2022/09/14 01:25:11;;;;;;;3.40;2.60;;;;;;;26.77;51.03;98567.59;2060636;28;20061;-51
2022/09/14 01:26:38;;;;;;;3.75;2.47;;;;;;;26.73;50.79;98561.03;2061052;28;20050;-52
2022/09/14 01:27:43;;;;;;;2.38;1.90;;;;;;;26.71;51.05;98572.16;2050951;28;20054;-49
2022/09/14 01:28:51;;;;;;;3.55;2.65;;;;;;;26.74;51.22;98565.41;2056566;28;20099;-52
2022/09/14 01:30:03;;;;;;;3.05;2.70;;;;;;;26.76;51.17;98563.25;2062168;28;20078;-52
2022/09/14 01:31:11;;;;;;;3.75;2.80;;;;;;;26.76;50.76;98567.88;2060871;28;20089;-49
2022/09/14 01:32:17;;;;;;;3.67;2.72;;;;;;;26.74;51.05;98563.53;2060846;28;20058;-50
2022/09/14 01:33:27;;;;;;;3.45;2.58;;;;;;;26.73;51.19;98575.47;2063625;28;20065;-49
2022/09/14 01:34:34;;;;;;;2.35;2.13;;;;;;;26.76;50.83;98565.97;2057278;28;20137;-52
2022/09/14 01:35:40;;;;;;;4.07;3.00;;;;;;;26.76;50.75;98574.13;2054219;28;20046;-52
2022/09/14 01:36:48;;;;;;;4.53;2.67;;;;;;;26.73;51.04;98563.75;2061205;28;20048;-50
2022/09/14 01:37:53;;;;;;;3.42;2.33;;;;;;;26.74;51.36;98559.94;2054516;28;20050;-51
2022/09/14 01:38:55;;;;;;;4.45;2.58;;;;;;;26.74;51.19;98557.22;2059837;28;20053;-49
2022/09/14 01:40:02;;;;;;;3.03;2.53;;;;;;;26.77;51.14;98561.34;2063220;28;20038;-50
2022/09/14 01:41:09;;;;;;;2.53;2.25;;;;;;;26.78;51.17;98558.38;2061460;28;21808;-51
2022/09/14 01:42:12;;;;;;;2.75;2.30;;;;;;;26.73;50.83;98558.31;2062002;28;20057;-52
2022/09/14 01:43:19;;;;;;;3.15;2.65;;;;;;;26.73;50.83;98559.13;2054340;28;20116;-51
2022/09/14 01:44:27;;;;;;;5.18;3.13;;;;;;;26.72;50.89;98557.50;2060327;28;20636;-52
2022/09/14 01:45:30;;;;;;;3.03;2.10;;;;;;;26.72;51.06;98554.78;2062145;28;20104;-51
2022/09/14 01:46:38;;;;;;;2.65;2.45;;;;;;;26.74;51.07;98554.50;2061761;28;20997;-48
2022/09/14 01:47:46;;;;;;;3.40;2.60;;;;;;;26.72;50.86;98553.97;2060052;28;20608;-52
2022/09/14 01:48:52;;;;;;;2.28;2.05;;;;;;;26.72;51.02;98543.91;2059235;28;20057;-50
2022/09/14 01:49:58;;;;;;;2.47;1.98;;;;;;;26.71;50.70;98539.53;2062233;28;20081;-51
2022/09/14 01:51:05;;;;;;;3.78;2.30;;;;;;;26.72;50.53;98543.09;2060172;28;20050;-49
2022/09/14 01:52:11;;;;;;;2.67;2.20;;;;;;;26.72;50.89;98535.75;2062205;28;22592;-49
2022/09/14 01:53:17;;;;;;;3.60;2.30;;;;;;;26.72;50.94;98532.22;2061005;28;20165;-48
2022/09/14 01:54:22;;;;;;;2.20;2.00;;;;;;;26.73;50.61;98536.56;2061751;28;20100;-52
2022/09/14 01:55:30;;;;;;;4.63;2.40;;;;;;;26.74;51.12;98524.59;2061190;28;20048;-49
2022/09/14 01:56:37;;;;;;;3.42;2.58;;;;;;;26.73;50.61;98520.22;2058969;28;20128;-49
2022/09/14 01:57:42;;;;;;;3.88;2.88;;;;;;;26.71;51.22;98516.94;2063342;28;20081;-49
2022/09/14 01:58:47;;;;;;;3.03;2.20;;;;;;;26.72;50.77;98513.97;2058425;28;20061;-49
2022/09/14 01:59:53;;;;;;;2.75;2.53;;;;;;;26.74;50.51;98516.41;2058943;28;20119;-50
2022/09/14 02:00:56;;;;;;;3.13;2.20;;;;;;;26.74;50.68;98511.81;2055555;28;20054;-51
2022/09/14 02:02:06;;;;;;;3.17;2.75;;;;;;;26.73;50.67;98520.22;2059789;28;20085;-49
2022/09/14 02:03:11;;;;;;;3.35;2.97;;;;;;;26.76;51.10;98521.63;2060817;28;20112;-51
2022/09/14 02:04:22;;;;;;;3.40;2.42;;;;;;;26.72;50.95;98521.31;2057249;28;20469;-51
2022/09/14 02:05:29;;;;;;;2.95;2.63;;;;;;;26.73;50.58;98520.22;2062958;28;20054;-50
2022/09/14 02:06:36;;;;;;;3.67;2.75;;;;;;;26.76;50.40;98516.16;2058312;28;20062;-51
2022/09/14 02:07:37;;;;;;;3.80;2.60;;;;;;;26.72;50.58;98516.69;2058641;28;20584;-49
2022/09/14 02:08:39;;;;;;;2.53;1.92;;;;;;;26.72;50.69;98511.25;2059944;28;20603;-52
2022/09/14 02:09:41;;;;;;;3.92;2.63;;;;;;;26.73;50.60;98514.78;2061542;28;20683;-54
2022/09/14 02:10:43;;;;;;;2.50;2.10;;;;;;;26.73;50.68;98517.50;2065691;28;20084;-56
2022/09/14 02:11:44;;;;;;;2.60;2.10;;;;;;;26.77;50.60;98512.34;2059934;28;20076;-53
2022/09/14 02:12:46;;;;;;;2.53;2.33;;;;;;;26.72;50.65;98511.25;2063211;28;20049;-49
2022/09/14 02:13:48;;;;;;;2.88;2.15;;;;;;;26.75;50.72;98509.91;2064192;28;20049;-50
2022/09/14 02:14:52;;;;;;;2.67;2.47;;;;;;;26.74;50.74;98502.81;2061633;28;20042;-51
2022/09/14 02:15:53;;;;;;;3.30;2.67;;;;;;;26.72;50.71;98505.81;2064105;28;20536;-48
2022/09/14 02:16:55;;;;;;;2.50;2.20;;;;;;;26.71;50.54;98504.16;2063503;28;20536;-52
2022/09/14 02:17:56;;;;;;;2.85;2.38;;;;;;;26.72;50.62;98505.00;2060698;28;20467;-54
2022/09/14 02:19:00;;;;;;;4.97;2.88;;;;;;;26.71;50.48;98506.06;2060679;28;20099;-49
2022/09/14 02:20:05;;;;;;;2.67;2.17;;;;;;;26.72;50.93;98505.81;2062294;28;20112;-50
2022/09/14 02:21:13;;;;;;;2.90;2.30;;;;;;;26.73;50.27;98501.19;2063292;28;20088;-52
2022/09/14 02:22:13;;;;;;;2.08;1.85;;;;;;;26.73;50.42;98498.47;2060639;28;20111;-50
2022/09/14 02:23:16;;;;;;;2.88;1.90;;;;;;;26.72;50.74;98500.38;2063015;28;20046;-52
2022/09/14 02:24:17;;;;;;;3.10;1.88;;;;;;;26.77;50.71;98502.28;2064082;28;20469;-50
2022/09/14 02:25:20;;;;;;;2.25;2.00;;;;;;;26.75;50.36;98501.75;2057816;28;21066;-49
2022/09/14 02:26:22;;;;;;;2.97;2.45;;;;;;;26.73;50.54;98507.44;2058306;28;20045;-49
2022/09/14 02:27:24;;;;;;;1.98;1.80;;;;;;;26.72;50.90;98505.81;2064463;28;20046;-55
2022/09/14 02:28:25;;;;;;;3.08;2.47;;;;;;;26.73;50.67;98509.34;2060228;28;20132;-51
2022/09/14 02:29:28;;;;;;;3.08;2.47;;;;;;;26.72;50.78;98505.81;2061328;28;20637;-53
2022/09/14 02:30:38;;;;;;;3.60;2.30;;;;;;;26.72;50.57;98507.72;2062036;28;20054;-51
2022/09/14 02:31:52;;;;;;;2.63;2.13;;;;;;;26.70;50.85;98512.59;2062676;28;20129;-54
2022/09/14 02:33:03;;;;;;;2.85;2.28;;;;;;;26.69;50.63;98508.22;2062153;28;20528;-51
2022/09/14 02:34:09;;;;;;;2.53;2.13;;;;;;;26.71;50.57;98506.06;2061515;28;20042;-51
2022/09/14 02:35:18;;;;;;;2.83;2.00;;;;;;;26.71;50.58;98500.63;2060528;28;20046;-56
2022/09/14 02:36:27;;;;;;;3.67;1.70;;;;;;;26.71;50.20;98500.63;2064158;28;20099;-54
2022/09/14 02:37:40;;;;;;;3.25;1.85;;;;;;;26.69;50.80;98494.59;2063110;28;20046;-50
2022/09/14 02:38:48;;;;;;;2.22;2.03;;;;;;;26.72;50.48;98488.69;2066250;28;20402;-49
2022/09/14 02:39:58;;;;;;;3.03;1.92;;;;;;;26.71;50.65;98487.00;2061319;28;20049;-57
2022/09/14 02:41:04;;;;;;;2.53;2.30;;;;;;;26.72;50.33;98483.22;2062453;28;20046;-50
2022/09/14 02:42:17;;;;;;;2.17;1.90;;;;;;;26.68;50.79;98484.81;2064435;28;20060;-52
2022/09/14 02:43:29;;;;;;;2.88;2.28;;;;;;;26.69;50.76;98484.56;2062102;28;20046;-51
2022/09/14 02:44:38;;;;;;;3.10;2.42;;;;;;;26.70;50.62;98480.75;2061633;28;20046;-53
2022/09/14 02:45:48;;;;;;;2.50;1.77;;;;;;;26.70;50.22;98482.66;2064103;28;20058;-54
2022/09/14 02:46:57;;;;;;;2.65;2.15;;;;;;;26.70;50.66;98480.75;2056580;28;20042;-53
2022/09/14 02:48:03;;;;;;;2.40;2.00;;;;;;;26.72;50.67;98477.78;2060649;28;20039;-55
2022/09/14 02:49:12;;;;;;;4.05;2.25;;;;;;;26.72;50.35;98475.88;2062194;28;20056;-52
2022/09/14 02:50:21;;;;;;;2.67;1.70;;;;;;;26.74;50.43;98475.59;2060253;28;20057;-54
2022/09/14 02:51:30;;;;;;;2.17;1.92;;;;;;;26.72;50.34;98469.63;2059929;28;20137;-52
2022/09/14 02:52:34;;;;;;;3.13;2.08;;;;;;;26.73;50.47;98479.41;2063908;28;20045;-49
2022/09/14 02:53:43;;;;;;;2.67;2.05;;;;;;;26.73;50.30;98479.41;2060787;28;20054;-52
2022/09/14 02:54:51;;;;;;;3.72;2.30;;;;;;;26.73;50.08;98473.97;2062967;28;20057;-55
2022/09/14 02:56:02;;;;;;;2.80;2.05;;;;;;;26.71;50.54;98476.94;2058731;28;20038;-51
2022/09/14 02:57:04;;;;;;;2.83;2.13;;;;;;;26.71;50.57;98484.28;2062263;28;20070;-55
2022/09/14 02:58:08;;;;;;;4.00;2.63;;;;;;;26.71;50.68;98478.84;2061014;28;20585;-53
2022/09/14 02:59:08;;;;;;;2.05;1.88;;;;;;;26.72;50.50;98469.63;2064349;28;20062;-55
2022/09/14 03:00:13;;;;;;;2.63;1.73;;;;;;;26.71;50.35;98476.13;2056917;28;20050;-51
2022/09/14 03:01:16;;;;;;;4.22;2.90;;;;;;;26.74;50.09;98475.59;2059323;28;20104;-53
2022/09/14 03:02:18;;;;;;;1.70;1.60;;;;;;;26.71;50.39;98476.13;2061090;28;20671;-53
2022/09/14 03:03:20;;;;;;;3.90;2.25;;;;;;;26.71;50.43;98478.84;2063200;28;20105;-53
2022/09/14 03:04:22;;;;;;;2.58;2.25;;;;;;;26.73;50.29;98484.88;2059708;28;20125;-52
2022/09/14 03:05:23;;;;;;;3.63;2.00;;;;;;;26.72;50.69;98488.69;2059041;28;20093;-54
2022/09/14 03:06:24;;;;;;;2.88;2.05;;;;;;;26.73;50.27;98495.75;2059883;28;20062;-55
2022/09/14 03:07:25;;;;;;;1.85;1.40;;;;;;;26.73;50.77;98496.56;2060281;28;20107;-53
2022/09/14 03:08:28;;;;;;;2.53;2.00;;;;;;;26.73;50.68;98498.47;2061718;28;20639;-56
2022/09/14 03:09:29;;;;;;;2.17;1.88;;;;;;;26.73;50.26;98501.19;2061122;28;20100;-52
2022/09/14 03:10:31;;;;;;;3.03;2.38;;;;;;;26.74;50.24;98505.53;2063880;28;20061;-54
2022/09/14 03:11:32;;;;;;;3.58;1.67;;;;;;;26.73;50.46;98506.63;2064037;28;20567;-53
2022/09/14 03:12:34;;;;;;;3.03;1.77;;;;;;;26.74;50.18;98500.94;2059217;28;20058;-47
2022/09/14 03:13:35;;;;;;;2.28;2.08;;;;;;;26.74;50.32;98502.81;2061811;28;20371;-51
2022/09/14 03:14:36;;;;;;;3.28;1.90;;;;;;;26.73;50.56;98499.28;2062199;28;20710;-49
2022/09/14 03:15:39;;;;;;;2.88;2.58;;;;;;;26.72;50.31;98503.09;2062521;28;20091;-57
2022/09/14 03:16:41;;;;;;;1.98;1.77;;;;;;;26.73;50.71;98501.19;2061892;28;20057;-56
2022/09/14 03:17:45;;;;;;;2.25;1.65;;;;;;;26.71;50.30;98503.34;2060401;28;20596;-50
2022/09/14 03:18:47;;;;;;;2.83;2.03;;;;;;;26.71;50.70;98501.44;2061056;28;20061;-54
2022/09/14 03:19:48;;;;;;;2.22;1.85;;;;;;;26.71;50.37;98497.91;2059257;28;20140;-48
2022/09/14 03:20:50;;;;;;;4.15;2.47;;;;;;;26.69;50.79;98497.31;2059382;28;20173;-52
2022/09/14 03:21:51;;;;;;;3.88;1.98;;;;;;;26.68;50.37;98496.50;2062419;28;20081;-52
2022/09/14 03:22:52;;;;;;;2.90;1.83;;;;;;;26.69;50.48;98498.19;2064582;28;20442;-49
2022/09/14 03:23:54;;;;;;;2.10;1.70;;;;;;;26.70;50.69;98496.28;2061038;28;20096;-55
2022/09/14 03:24:55;;;;;;;4.50;2.20;;;;;;;26.67;50.86;98500.31;2059804;28;20053;-55
2022/09/14 03:25:56;;;;;;;3.60;1.75;;;;;;;26.68;50.44;98496.50;2061969;28;20050;-55
2022/09/14 03:26:58;;;;;;;2.28;1.80;;;;;;;26.72;50.91;98502.28;2060099;28;20112;-51
2022/09/14 03:27:59;;;;;;;3.85;1.98;;;;;;;26.70;50.62;98499.81;2061122;28;20123;-53
2022/09/14 03:29:00;;;;;;;8.50;2.20;;;;;;;26.71;50.34;98489.72;2057109;28;20453;-51
2022/09/14 03:30:01;;;;;;;1.65;1.50;;;;;;;26.71;50.32;98495.19;2060925;28;20050;-53
2022/09/14 03:31:06;;;;;;;2.22;1.70;;;;;;;26.69;50.66;98492.72;2062769;28;20483;-53
2022/09/14 03:32:09;;;;;;;2.55;2.03;;;;;;;26.69;50.47;98494.59;2059610;28;20054;-56
2022/09/14 03:33:12;;;;;;;3.70;2.03;;;;;;;26.69;50.66;98487.28;2060344;28;20078;-56
2022/09/14 03:34:12;;;;;;;2.35;1.60;;;;;;;26.69;50.52;98494.59;2060121;28;20445;-48
2022/09/14 03:35:15;;;;;;;2.15;1.73;;;;;;;26.70;50.51;98499.00;2060148;28;20064;-54
2022/09/14 03:36:19;;;;;;;2.47;1.65;;;;;;;26.69;50.47;98489.16;2062871;28;20107;-51
2022/09/14 03:37:19;;;;;;;1.55;1.45;;;;;;;26.69;50.35;98497.31;2060665;28;20454;-51
2022/09/14 03:38:21;;;;;;;2.05;1.48;;;;;;;26.68;50.23;98493.78;2062114;28;20050;-53
2022/09/14 03:39:22;;;;;;;1.98;1.67;;;;;;;26.69;50.56;98489.16;2062859;28;20046;-54
2022/09/14 03:40:24;;;;;;;1.92;1.38;;;;;;;26.69;50.43;98491.88;2061016;28;20644;-53
2022/09/14 03:41:25;;;;;;;1.95;1.75;;;;;;;26.69;50.36;98492.72;2061633;28;20656;-57
2022/09/14 03:42:27;;;;;;;2.22;1.40;;;;;;;26.67;50.35;98491.34;2062915;28;20643;-51
2022/09/14 03:43:27;;;;;;;4.05;2.17;;;;;;;26.69;50.57;98495.47;2062186;28;20058;-54
2022/09/14 03:44:29;;;;;;;2.20;1.77;;;;;;;26.67;50.35;98491.34;2062672;28;20058;-53
2022/09/14 03:45:30;;;;;;;1.60;1.40;;;;;;;26.70;50.64;98496.28;2063309;28;20138;-54
2022/09/14 03:46:33;;;;;;;1.75;1.65;;;;;;;26.70;50.28;98485.38;2063645;28;20279;-49
2022/09/14 03:47:33;;;;;;;3.08;2.13;;;;;;;26.67;50.84;98485.91;2062895;28;20054;-50
2022/09/14 03:48:35;;;;;;;3.03;1.60;;;;;;;26.70;50.62;98479.94;2064364;28;20046;-50
2022/09/14 03:49:36;;;;;;;2.10;1.70;;;;;;;26.68;50.66;98482.91;2058592;28;20193;-50
2022/09/14 03:50:38;;;;;;;4.05;1.95;;;;;;;26.68;50.81;98492.97;2058866;28;20060;-53
2022/09/14 03:51:38;;;;;;;4.00;1.45;;;;;;;26.69;50.73;98481.00;2060830;28;20173;-53
2022/09/14 03:52:40;;;;;;;2.22;1.80;;;;;;;26.65;50.82;98485.34;2062861;28;20098;-52
2022/09/14 03:53:43;;;;;;;1.90;1.75;;;;;;;26.67;50.26;98480.47;2063613;28;20041;-53
2022/09/14 03:54:45;;;;;;;1.88;1.77;;;;;;;26.67;50.74;98485.91;2057310;28;20059;-55
2022/09/14 03:55:46;;;;;;;1.92;1.33;;;;;;;26.62;50.98;98477.69;2058833;28;20046;-56
2022/09/14 03:56:47;;;;;;;1.48;1.35;;;;;;;26.69;50.84;98484.56;2061609;28;20109;-48
2022/09/14 03:57:52;;;;;;;3.78;1.77;;;;;;;26.68;50.44;98487.53;2064628;28;20061;-54
2022/09/14 03:58:54;;;;;;;1.55;1.45;;;;;;;26.69;50.85;98486.44;2060549;28;20046;-55
2022/09/14 03:59:55;;;;;;;2.25;1.80;;;;;;;26.70;50.79;98490.81;2060222;28;20875;-49
2022/09/14 04:00:57;;;;;;;2.05;1.55;;;;;;;26.68;50.82;98493.78;2061796;28;20054;-53
2022/09/14 04:01:59;;;;;;;2.63;1.75;;;;;;;26.67;50.87;98486.72;2061806;28;20624;-51
2022/09/14 04:03:01;;;;;;;1.92;1.60;;;;;;;26.66;50.65;98492.41;2063198;28;20042;-50
2022/09/14 04:04:01;;;;;;;2.80;1.90;;;;;;;26.66;50.60;98497.84;2063422;28;20054;-50
2022/09/14 04:05:03;;;;;;;2.38;1.65;;;;;;;26.67;50.58;98491.34;2052899;28;20046;-52
2022/09/14 04:06:05;;;;;;;2.05;1.58;;;;;;;26.62;50.65;98496.75;2057531;28;20054;-51
2022/09/14 04:07:07;;;;;;;2.17;1.70;;;;;;;26.65;50.94;98490.78;2062189;28;20073;-50
2022/09/14 04:08:08;;;;;;;2.53;1.50;;;;;;;26.67;50.94;98491.34;2064488;28;20387;-49
2022/09/14 04:09:09;;;;;;;1.90;1.67;;;;;;;26.65;50.63;98488.06;2066530;28;20141;-51
2022/09/14 04:10:10;;;;;;;3.03;1.73;;;;;;;26.63;50.68;98485.59;2058942;28;20072;-51
2022/09/14 04:11:15;;;;;;;3.05;2.03;;;;;;;26.63;51.07;98492.94;2059671;28;20050;-52
2022/09/14 04:12:15;;;;;;;1.40;1.30;;;;;;;26.66;50.60;98492.41;2063230;28;20038;-49
2022/09/14 04:13:17;;;;;;;1.80;1.45;;;;;;;26.63;51.01;98498.38;2065759;28;20041;-49
2022/09/14 04:14:18;;;;;;;2.35;1.40;;;;;;;26.64;50.58;98492.69;2062728;28;20054;-50
2022/09/14 04:15:19;;;;;;;2.67;2.03;;;;;;;26.62;50.64;98494.84;2057925;28;20054;-49
2022/09/14 04:16:21;;;;;;;2.03;1.63;;;;;;;26.66;50.60;98495.97;2058061;28;20880;-52
2022/09/14 04:17:24;;;;;;;2.03;1.60;;;;;;;26.66;50.89;98489.69;2065022;28;20046;-53
2022/09/14 04:18:26;;;;;;;2.70;1.65;;;;;;;26.60;51.01;98485.28;2062233;28;20564;-52
2022/09/14 04:19:27;;;;;;;3.13;1.48;;;;;;;26.63;50.79;98490.22;2065440;28;20049;-48
2022/09/14 04:20:28;;;;;;;1.83;1.38;;;;;;;26.64;50.91;98494.59;2057265;28;20073;-48
2022/09/14 04:21:30;;;;;;;1.92;1.15;;;;;;;26.64;50.70;98486.44;2062378;28;20456;-48
2022/09/14 04:22:32;;;;;;;1.85;1.52;;;;;;;26.61;50.76;98482.34;2063506;28;20057;-49
2022/09/14 04:23:34;;;;;;;2.08;1.67;;;;;;;26.66;50.64;98484.25;2063539;28;20050;-49
2022/09/14 04:24:35;;;;;;;1.60;1.42;;;;;;;26.63;51.03;98484.78;2060058;28;20053;-50
2022/09/14 04:25:37;;;;;;;1.73;1.20;;;;;;;26.62;51.17;98491.31;2060207;28;20050;-49
2022/09/14 04:26:37;;;;;;;3.22;1.35;;;;;;;26.63;51.03;98484.78;2064094;28;20046;-50
2022/09/14 04:27:39;;;;;;;2.35;1.23;;;;;;;26.61;51.22;98487.78;2063338;28;20056;-50
2022/09/14 04:28:40;;;;;;;1.67;1.30;;;;;;;26.62;50.84;98488.59;2060175;28;20131;-50
2022/09/14 04:29:42;;;;;;;1.42;1.33;;;;;;;26.62;51.07;98486.69;2062788;28;20646;-52
2022/09/14 04:30:42;;;;;;;3.13;1.48;;;;;;;26.63;50.94;98487.50;2062723;28;20099;-52
2022/09/14 04:31:44;;;;;;;2.95;1.70;;;;;;;26.63;51.01;98482.88;2060958;28;20049;-50
2022/09/14 04:32:46;;;;;;;2.25;1.95;;;;;;;26.65;51.08;98485.34;2063045;28;21013;-53
2022/09/14 04:33:49;;;;;;;2.20;1.50;;;;;;;26.61;51.20;98482.34;2059820;28;20107;-48
2022/09/14 04:34:50;;;;;;;1.80;1.60;;;;;;;26.62;51.16;98475.78;2061258;28;20092;-53
2022/09/14 04:36:01;;;;;;;2.38;1.50;;;;;;;26.62;50.64;98472.25;2060110;28;20124;-54
2022/09/14 04:37:02;;;;;;;1.35;1.20;;;;;;;26.61;51.06;98467.91;2057945;28;20042;-49
2022/09/14 04:38:04;;;;;;;1.98;1.40;;;;;;;26.61;51.06;98470.63;2058844;28;20133;-51
2022/09/14 04:39:05;;;;;;;2.00;1.17;;;;;;;26.62;50.91;98467.63;2062420;28;20080;-51
2022/09/14 04:40:08;;;;;;;2.58;1.50;;;;;;;26.66;50.58;98473.38;2063556;28;20046;-52
2022/09/14 04:41:10;;;;;;;1.83;1.20;;;;;;;26.65;50.90;98471.75;2063293;28;20104;-51
2022/09/14 04:42:12;;;;;;;1.75;1.50;;;;;;;26.66;51.20;98473.38;2060925;28;20132;-59
2022/09/14 04:43:13;;;;;;;1.50;1.30;;;;;;;26.65;51.15;98471.75;2060807;28;20061;-53
2022/09/14 04:44:15;;;;;;;1.80;1.40;;;;;;;26.62;51.02;98477.69;2062935;28;20142;-50
2022/09/14 04:45:16;;;;;;;1.77;1.67;;;;;;;26.62;50.90;98478.53;2061628;28;20042;-52
2022/09/14 04:46:19;;;;;;;1.75;1.30;;;;;;;26.60;50.87;98479.84;2062141;28;20105;-50
2022/09/14 04:47:19;;;;;;;1.73;1.63;;;;;;;26.60;51.40;98483.38;2057644;28;24627;-52
2022/09/14 04:48:22;;;;;;;3.13;1.55;;;;;;;26.63;51.08;98484.78;2059332;28;20098;-50
2022/09/14 04:49:23;;;;;;;1.55;1.30;;;;;;;26.57;51.13;98483.09;2063136;28;20050;-53
2022/09/14 04:50:25;;;;;;;1.70;1.40;;;;;;;26.55;51.10;98493.41;2062120;28;20057;-50
2022/09/14 04:51:27;;;;;;;1.75;1.13;;;;;;;26.61;51.40;98484.22;2063334;28;20160;-50
2022/09/14 04:52:29;;;;;;;2.28;1.40;;;;;;;26.61;50.92;98481.50;2060056;28;20082;-53
2022/09/14 04:53:32;;;;;;;2.05;1.55;;;;;;;26.59;51.39;98489.91;2059667;28;20061;-53
2022/09/14 04:54:34;;;;;;;2.10;1.23;;;;;;;26.62;51.36;98491.31;2059913;28;20509;-48
2022/09/14 04:55:35;;;;;;;1.40;1.10;;;;;;;26.62;50.90;98491.31;2060933;28;20054;-49
2022/09/14 04:56:37;;;;;;;2.05;1.40;;;;;;;26.61;51.36;98495.13;2060696;28;20575;-52
2022/09/14 04:57:37;;;;;;;2.10;1.42;;;;;;;26.61;51.52;98498.66;2063840;28;20050;-50
2022/09/14 04:58:42;;;;;;;2.97;1.30;;;;;;;26.58;51.57;98498.31;2063774;28;20053;-52
2022/09/14 04:59:44;;;;;;;3.50;1.67;;;;;;;26.60;51.44;98502.44;2060575;28;20050;-49
2022/09/14 05:00:45;;;;;;;1.67;1.35;;;;;;;26.60;51.70;98490.75;2063485;28;20686;-54